Time;durP1;ratioP1;P1;durP2;ratioP2;P2;SDS_P1;SDS_P2;PMS_P1;PMS_P2;Temp;Humidity;BMP_temperature;BMP_pressure;BME280_temperature;BME280_humidity;BME280_pressure;Samples;Min_cycle;Max_cycle;Signal;HPM_P1;HPM_P2
2023/01/13 00:01:54;;;;;;;25.73;4.28;;;;;;;-142.75;100.00;76613.59;5080600;28;20758;-66
2023/01/13 00:04:19;;;;;;;25.65;3.38;;;;;;;-142.75;100.00;76621.47;5079948;28;20055;-66
2023/01/13 00:06:44;;;;;;;26.17;3.13;;;;;;;-142.75;100.00;76613.59;5079239;28;20503;-66
2023/01/13 00:09:10;;;;;;;13.43;2.80;;;;;;;-142.75;100.00;76613.59;5061872;28;20069;-66
2023/01/13 00:11:35;;;;;;;34.53;3.83;;;;;;;-142.75;100.00;76597.84;5080174;28;20548;-63
2023/01/13 00:14:00;;;;;;;14.13;2.25;;;;;;;-142.75;100.00;76588.00;5079896;28;20032;-66
2023/01/13 00:16:26;;;;;;;27.08;2.65;;;;;;;-142.75;100.00;76582.09;5079368;28;20032;-64
2023/01/13 00:18:51;;;;;;;21.98;3.05;;;;;;;-142.75;100.00;76586.03;5079684;28;20058;-66
2023/01/13 00:21:19;;;;;;;32.97;4.15;;;;;;;-142.75;100.00;76574.22;5061837;28;20823;-65
2023/01/13 00:23:45;;;;;;;25.67;3.08;;;;;;;-142.75;100.00;76582.09;5061680;28;20020;-65
2023/01/13 00:26:12;;;;;;;;;;;;;;;-142.75;100.00;76568.31;5061763;28;20452;-65
2023/01/13 00:28:38;;;;;;;34.17;3.72;;;;;;;-142.75;100.00;76568.31;5078986;28;19943;-66
2023/01/13 00:31:11;;;;;;;22.83;3.65;;;;;;;-142.75;100.00;76562.41;5079437;28;20077;-67
2023/01/13 00:33:37;;;;;;;27.83;3.70;;;;;;;-142.75;100.00;76558.47;5079644;28;20236;-67
2023/01/13 00:36:04;;;;;;;32.22;4.10;;;;;;;-142.75;100.00;76558.47;5061398;28;20509;-66
2023/01/13 00:38:31;;;;;;;30.45;4.95;;;;;;;-142.75;100.00;76550.59;5078591;28;20050;-65
2023/01/13 00:40:57;;;;;;;30.50;3.70;;;;;;;-142.75;100.00;76554.53;5079345;28;20040;-64
2023/01/13 00:43:22;;;;;;;35.63;4.28;;;;;;;-142.75;100.00;76560.44;5079349;28;20492;-64
2023/01/13 00:45:50;;;;;;;21.55;3.58;;;;;;;-142.75;100.00;76540.75;5079672;28;20028;-66
2023/01/13 00:48:17;;;;;;;26.48;4.00;;;;;;;-142.75;100.00;76550.59;5060433;28;20875;-65
2023/01/13 00:50:42;;;;;;;28.65;4.95;;;;;;;-142.75;100.00;76550.59;5079458;28;20580;-65
2023/01/13 00:53:07;;;;;;;20.38;3.28;;;;;;;-142.75;100.00;76542.72;5061283;28;20027;-66
2023/01/13 00:55:33;;;;;;;29.85;3.95;;;;;;;-142.75;100.00;76538.78;5079261;28;20045;-66
2023/01/13 00:58:07;;;;;;;35.80;4.88;;;;;;;-142.75;100.00;76546.66;5078590;28;20031;-66
2023/01/13 01:00:32;;;;;;;24.50;3.65;;;;;;;-142.75;100.00;76554.53;5061092;28;20055;-66
2023/01/13 01:02:58;;;;;;;18.55;3.08;;;;;;;-142.75;100.00;76538.78;5079142;28;20139;-63
2023/01/13 01:05:33;;;;;;;33.83;4.75;;;;;;;-142.75;100.00;76548.63;5079326;28;20030;-63
2023/01/13 01:07:58;;;;;;;30.10;4.32;;;;;;;-142.75;100.00;76546.66;5060144;28;20861;-67
2023/01/13 01:10:23;;;;;;;29.30;3.15;;;;;;;-142.75;100.00;76554.53;5079292;28;20039;-65
2023/01/13 01:12:49;;;;;;;22.98;3.75;;;;;;;-142.75;100.00;76566.34;5079505;28;20534;-65
2023/01/13 01:15:15;;;;;;;29.77;4.22;;;;;;;-142.75;100.00;76568.31;5078894;28;20819;-65
2023/01/13 01:17:40;;;;;;;25.25;3.28;;;;;;;-142.75;100.00;76558.47;5078559;28;20028;-67
2023/01/13 01:20:06;;;;;;;22.73;3.65;;;;;;;-142.75;100.00;76554.53;5079132;28;20354;-66
2023/01/13 01:22:32;;;;;;;26.35;3.45;;;;;;;-142.75;100.00;76554.53;5078797;28;20064;-68
2023/01/13 01:24:57;;;;;;;19.10;2.90;;;;;;;-142.75;100.00;76538.78;5078948;28;20606;-64
2023/01/13 01:27:23;;;;;;;30.40;3.60;;;;;;;-142.75;100.00;76552.56;5060117;28;20454;-65
2023/01/13 01:29:48;;;;;;;25.15;3.35;;;;;;;-142.75;100.00;76554.53;5079068;28;20035;-64
2023/01/13 01:32:13;;;;;;;17.13;3.15;;;;;;;-142.75;100.00;76554.53;5078915;28;20024;-66
2023/01/13 01:34:39;;;;;;;33.35;4.03;;;;;;;-142.75;100.00;76562.41;5060945;28;20035;-67
2023/01/13 01:37:04;;;;;;;26.45;3.25;;;;;;;-142.75;100.00;76572.25;5077970;28;20024;-65
2023/01/13 01:39:30;;;;;;;26.23;3.05;;;;;;;-142.75;100.00;76580.13;5060812;28;20024;-66
2023/01/13 01:44:52;;;;;;;20.58;3.30;;;;;;;-142.75;100.00;76564.38;5079147;28;20035;-66
2023/01/13 01:47:19;;;;;;;27.85;3.78;;;;;;;-142.75;100.00;76570.28;5078379;28;20370;-66
2023/01/13 01:49:45;;;;;;;27.58;3.20;;;;;;;-142.75;100.00;76562.41;5060793;28;20048;-68
2023/01/13 01:52:15;;;;;;;;;;;;;;;-142.75;100.00;76560.44;5079017;28;20056;-67
2023/01/13 01:54:55;;;;;;;34.13;3.53;;;;;;;-142.75;100.00;76582.09;5079705;28;20396;-67
2023/01/13 01:57:27;;;;;;;25.70;3.53;;;;;;;-142.75;100.00;76578.16;5063359;28;20020;-64
2023/01/13 01:59:52;;;;;;;29.17;4.53;;;;;;;-142.75;100.00;76593.91;5064677;28;20055;-68
2023/01/13 02:02:18;;;;;;;28.75;3.95;;;;;;;-142.75;100.00;76595.88;5082450;28;20111;-68
2023/01/13 02:04:50;;;;;;;26.58;4.03;;;;;;;-142.75;100.00;76584.06;5064014;28;20024;-66
2023/01/13 02:07:26;;;;;;;25.08;3.65;;;;;;;-142.75;100.00;76593.91;5081490;28;20020;-67
2023/01/13 02:09:54;;;;;;;26.67;3.40;;;;;;;-142.75;100.00;76599.81;5082733;28;20023;-68
2023/01/13 02:12:29;;;;;;;24.20;3.53;;;;;;;-142.75;100.00;76591.94;5063840;28;20035;-66
2023/01/13 02:15:14;;;;;;;31.02;3.22;;;;;;;-142.75;100.00;76568.31;5082584;28;20469;-67
2023/01/13 02:17:55;;;;;;;29.98;3.55;;;;;;;-142.75;100.00;76566.34;5081470;28;20035;-66
2023/01/13 02:20:49;;;;;;;34.13;3.42;;;;;;;-142.75;100.00;76558.47;5063904;28;20035;-67
2023/01/13 02:26:18;;;;;;;25.88;4.00;;;;;;;-142.75;100.00;76560.44;5082453;28;20081;-67
2023/01/13 02:31:41;;;;;;;20.10;3.45;;;;;;;-142.75;100.00;76580.13;5082275;28;20061;-68
2023/01/13 02:34:17;;;;;;;23.75;3.08;;;;;;;-142.75;100.00;76576.19;5081944;28;20024;-67
2023/01/13 02:36:54;;;;;;;26.67;3.42;;;;;;;-142.75;100.00;76562.41;5081311;28;20021;-66
2023/01/13 02:39:19;;;;;;;22.83;4.00;;;;;;;-142.75;100.00;76564.38;5081730;28;20028;-66
2023/01/13 02:44:49;;;;;;;32.25;3.67;;;;;;;-142.75;100.00;76570.28;5082226;28;20178;-67
2023/01/13 02:47:21;;;;;;;28.10;3.30;;;;;;;-142.75;100.00;76584.06;5080902;28;20020;-67
2023/01/13 02:49:51;;;;;;;25.10;3.30;;;;;;;-142.75;100.00;76580.13;5082115;28;20031;-67
2023/01/13 02:52:26;;;;;;;22.77;3.25;;;;;;;-142.75;100.00;76593.91;5081314;28;20024;-67
2023/01/13 02:54:56;;;;;;;34.63;4.18;;;;;;;-142.75;100.00;76597.84;5063640;28;20036;-68
2023/01/13 02:57:25;;;;;;;36.42;4.22;;;;;;;-142.75;100.00;76611.63;5062372;28;20028;-66
2023/01/13 02:59:54;;;;;;;31.10;3.83;;;;;;;-142.75;100.00;76609.66;5081743;28;20069;-65
2023/01/13 03:02:21;;;;;;;26.13;2.92;;;;;;;-142.75;100.00;76595.88;5081389;28;20524;-65
2023/01/13 03:04:58;;;;;;;16.45;3.13;;;;;;;-142.75;100.00;76591.94;5081654;28;20020;-66
2023/01/13 03:07:41;;;;;;;37.17;4.03;;;;;;;-142.75;100.00;76584.06;5060997;28;20115;-67
2023/01/13 03:10:10;;;;;;;21.20;3.07;;;;;;;-142.75;100.00;76591.94;5081429;28;20027;-67
2023/01/13 03:12:35;;;;;;;20.58;3.85;;;;;;;-142.75;100.00;76597.84;5081194;28;20549;-67
2023/01/13 03:15:16;;;;;;;20.80;3.78;;;;;;;-142.75;100.00;76586.03;5081220;28;20020;-66
2023/01/13 03:17:54;;;;;;;21.23;2.53;;;;;;;-142.75;100.00;76591.94;5080417;28;20028;-67
2023/01/13 03:20:31;;;;;;;15.30;2.33;;;;;;;-142.75;100.00;76599.81;5081132;28;20070;-67
2023/01/13 03:22:59;;;;;;;21.73;2.83;;;;;;;-142.75;100.00;76586.03;5062561;28;20043;-65
2023/01/13 03:25:34;;;;;;;20.50;2.83;;;;;;;-142.75;100.00;76588.00;5062630;28;20062;-67
2023/01/13 03:28:08;;;;;;;21.48;2.63;;;;;;;-142.75;100.00;76576.19;5079884;28;20338;-66
2023/01/13 03:30:41;;;;;;;27.58;3.72;;;;;;;-142.75;100.00;76582.09;5079464;28;20038;-67
2023/01/13 03:33:35;;;;;;;17.33;2.88;;;;;;;-142.75;100.00;76566.34;5080893;28;20028;-69
2023/01/13 03:36:08;;;;;;;21.88;2.47;;;;;;;-142.75;100.00;76568.31;5044876;28;20044;-66
2023/01/13 03:38:42;;;;;;;19.25;2.63;;;;;;;-142.75;100.00;76578.16;5079980;28;20865;-65
2023/01/13 03:41:32;;;;;;;17.60;2.33;;;;;;;-142.75;100.00;76576.19;5080534;28;20035;-67
2023/01/13 03:44:29;;;;;;;18.70;2.20;;;;;;;-142.75;100.00;76574.22;5080474;28;20059;-65
2023/01/13 03:47:03;;;;;;;14.82;2.28;;;;;;;-142.75;100.00;76578.16;5070668;28;20063;-66
2023/01/13 03:49:34;;;;;;;19.45;2.60;;;;;;;-142.75;100.00;76574.22;5062240;28;20028;-66
2023/01/13 03:52:05;;;;;;;21.13;2.00;;;;;;;-142.75;100.00;76595.88;5062663;28;20027;-66
2023/01/13 03:54:35;;;;;;;16.92;2.83;;;;;;;-142.75;100.00;76595.88;5080686;28;20032;-67
2023/01/13 03:57:08;;;;;;;18.17;2.63;;;;;;;-142.75;100.00;76584.06;5079560;28;20416;-64
2023/01/13 03:59:40;;;;;;;11.05;2.25;;;;;;;-142.75;100.00;76589.97;5080239;28;20107;-68
2023/01/13 04:02:13;;;;;;;12.20;1.77;;;;;;;-142.75;100.00;76607.69;5080068;28;20020;-64
2023/01/13 04:04:42;;;;;;;12.23;1.75;;;;;;;-142.75;100.00;76619.50;5080705;28;20016;-66
2023/01/13 04:07:19;;;;;;;12.60;1.30;;;;;;;-142.75;100.00;76601.78;5079417;28;20027;-68
2023/01/13 04:09:49;;;;;;;10.48;1.27;;;;;;;-142.75;100.00;76617.53;5080132;28;20039;-67
2023/01/13 04:15:12;;;;;;;5.80;1.10;;;;;;;-142.75;100.00;76619.50;5080303;28;20069;-66
2023/01/13 04:17:38;;;;;;;13.60;1.73;;;;;;;-142.75;100.00;76631.31;5078581;28;20020;-66
2023/01/13 04:20:03;;;;;;;6.63;1.20;;;;;;;-142.75;100.00;76629.34;5080028;28;20016;-66
2023/01/13 04:22:29;;;;;;;15.57;1.60;;;;;;;-142.75;100.00;76619.50;5080022;28;20540;-67
2023/01/13 04:24:54;;;;;;;12.50;1.70;;;;;;;-142.75;100.00;76621.47;5062113;28;20489;-67
2023/01/13 04:27:19;;;;;;;10.20;1.05;;;;;;;-142.75;100.00;76621.47;5060867;28;20028;-66
2023/01/13 04:29:45;;;;;;;11.02;1.30;;;;;;;-142.75;100.00;76633.28;5061771;28;20032;-66
2023/01/13 04:32:10;;;;;;;9.85;1.27;;;;;;;-142.75;100.00;76627.38;5079702;28;20016;-66
2023/01/13 04:34:35;;;;;;;8.38;1.13;;;;;;;-142.75;100.00;76627.38;5079429;28;20046;-67
2023/01/13 04:37:00;;;;;;;15.32;1.27;;;;;;;-142.75;100.00;76619.50;5078630;28;20020;-66
2023/01/13 04:39:26;;;;;;;10.95;1.08;;;;;;;-142.75;100.00;76617.53;5079575;28;20027;-67
2023/01/13 04:41:57;;;;;;;12.20;1.17;;;;;;;-142.75;100.00;76619.50;5079862;28;20027;-65
2023/01/13 04:44:22;;;;;;;15.68;1.85;;;;;;;-142.75;100.00;76633.28;5061576;28;20063;-68
2023/01/13 04:46:47;;;;;;;10.70;1.25;;;;;;;-142.75;100.00;76627.38;5060875;28;20529;-67
2023/01/13 04:49:13;;;;;;;15.75;1.70;;;;;;;-142.75;100.00;76621.47;5079350;28;20026;-66
2023/01/13 04:51:38;;;;;;;13.35;1.52;;;;;;;-142.75;100.00;76617.53;5061462;28;20038;-66
2023/01/13 04:54:03;;;;;;;20.25;1.70;;;;;;;-142.75;100.00;76621.47;5061353;28;20027;-67
2023/01/13 04:56:29;;;;;;;9.38;1.20;;;;;;;-142.75;100.00;76621.47;5079087;28;20800;-68
2023/01/13 04:58:54;;;;;;;21.52;1.90;;;;;;;-142.75;100.00;76619.50;5060855;28;20034;-66
2023/01/13 05:01:20;;;;;;;16.02;2.25;;;;;;;-142.75;100.00;76625.41;5061318;28;20051;-68
2023/01/13 05:03:45;;;;;;;13.07;2.22;;;;;;;-142.75;100.00;76609.66;5061511;28;20050;-68
2023/01/13 05:06:10;;;;;;;18.83;2.17;;;;;;;-142.75;100.00;76623.44;5079071;28;20165;-67
2023/01/13 05:08:36;;;;;;;14.93;1.58;;;;;;;-142.75;100.00;76625.41;5078776;28;20027;-66
2023/01/13 05:16:58;;;;;;;17.20;2.15;;;;;;;-142.75;100.00;76625.41;5079135;28;20489;-69
2023/01/13 05:19:14;;;;;;;12.43;1.42;;;;;;;-142.75;100.00;76619.50;5079309;28;20507;-70
2023/01/13 05:27:08;;;;;;;17.25;2.40;;;;;;;-142.75;100.00;76643.13;5078032;28;20039;-67
2023/01/13 05:29:33;;;;;;;11.98;1.95;;;;;;;-142.75;100.00;76637.22;5079926;28;20020;-68
2023/01/13 05:32:01;;;;;;;16.23;1.80;;;;;;;-142.75;100.00;76631.31;5083236;28;20492;-65
2023/01/13 05:34:26;;;;;;;15.23;2.03;;;;;;;-142.75;100.00;76635.25;5082667;28;20411;-67
2023/01/13 05:36:52;;;;;;;19.35;1.90;;;;;;;-142.75;100.00;76639.19;5082873;28;20548;-66
2023/01/13 05:39:17;;;;;;;15.07;2.47;;;;;;;-142.75;100.00;76639.19;5082899;28;20027;-67
2023/01/13 05:44:26;;;;;;;15.07;1.85;;;;;;;-142.75;100.00;76645.09;5083054;28;20104;-68
2023/01/13 05:46:51;;;;;;;20.65;2.00;;;;;;;-142.75;100.00;76654.94;5082320;28;20383;-67
2023/01/13 05:49:16;;;;;;;19.75;2.85;;;;;;;-142.75;100.00;76654.94;5082737;28;20043;-65
2023/01/13 05:51:42;;;;;;;8.05;1.45;;;;;;;-142.75;100.00;76652.97;5082728;28;20049;-67
2023/01/13 05:54:07;;;;;;;18.05;1.92;;;;;;;-142.75;100.00;76649.03;5082593;28;20020;-66
2023/01/13 05:56:33;;;;;;;14.70;1.45;;;;;;;-142.75;100.00;76664.78;5063921;28;20483;-67
2023/01/13 05:58:59;;;;;;;13.43;2.10;;;;;;;-142.75;100.00;76660.84;5082406;28;20051;-69
2023/01/13 06:01:24;;;;;;;11.38;1.90;;;;;;;-142.75;100.00;76664.78;5082688;28;20479;-67
2023/01/13 06:03:49;;;;;;;22.27;2.33;;;;;;;-142.75;100.00;76649.03;5064787;28;20028;-67
2023/01/13 06:06:15;;;;;;;11.38;1.98;;;;;;;-142.75;100.00;76649.03;5064127;28;20027;-66
2023/01/13 06:08:40;;;;;;;16.80;1.80;;;;;;;-142.75;100.00;76649.03;5081570;28;20411;-67
2023/01/13 06:11:05;;;;;;;25.23;2.00;;;;;;;-142.75;100.00;76641.16;5082168;28;20024;-66
2023/01/13 06:13:31;;;;;;;11.45;1.63;;;;;;;-142.75;100.00;76651.00;5082274;28;20035;-66
2023/01/13 06:15:57;;;;;;;16.58;1.80;;;;;;;-142.75;100.00;76645.09;5082121;28;20077;-67
2023/01/13 06:18:23;;;;;;;19.83;3.58;;;;;;;-142.75;100.00;76635.25;5063896;28;20362;-67
2023/01/13 06:20:48;;;;;;;17.63;2.08;;;;;;;-142.75;100.00;76647.06;5064437;28;20035;-68
2023/01/13 06:23:14;;;;;;;10.18;2.28;;;;;;;-142.75;100.00;76639.19;5082150;28;20027;-66
2023/01/13 06:26:02;;;;;;;14.18;2.25;;;;;;;-142.75;100.00;76637.22;5082450;28;20008;-66
2023/01/13 06:28:28;;;;;;;10.60;2.03;;;;;;;-142.75;100.00;76637.22;5081455;28;20088;-66
2023/01/13 06:30:57;;;;;;;14.85;2.38;;;;;;;-142.75;100.00;76641.16;5082455;28;20040;-66
2023/01/13 06:33:29;;;;;;;16.37;1.97;;;;;;;-142.75;100.00;76631.31;5082166;28;20028;-65
2023/01/13 06:35:58;;;;;;;13.65;2.78;;;;;;;-142.75;100.00;76641.16;5080732;28;20089;-66
2023/01/13 06:38:26;;;;;;;24.60;3.00;;;;;;;-142.75;100.00;76647.06;5081155;28;20731;-66
2023/01/13 06:40:52;;;;;;;17.00;2.83;;;;;;;-142.75;100.00;76637.22;5081871;28;20147;-67
2023/01/13 06:43:17;;;;;;;20.38;3.08;;;;;;;-142.75;100.00;76639.19;5063804;28;20030;-68
2023/01/13 06:45:52;;;;;;;17.10;2.70;;;;;;;-142.75;100.00;76658.88;5081767;28;20056;-68
2023/01/13 06:48:20;;;;;;;11.10;2.03;;;;;;;-142.75;100.00;76645.09;5080946;28;20062;-68
2023/01/13 06:50:45;;;;;;;15.05;2.28;;;;;;;-142.75;100.00;76637.22;5082006;28;20747;-67
2023/01/13 06:53:11;;;;;;;25.50;2.55;;;;;;;-142.75;100.00;76639.19;5081691;28;20119;-67
2023/01/13 06:55:36;;;;;;;17.13;2.38;;;;;;;-142.75;100.00;76651.00;5081580;28;20077;-68
2023/01/13 06:58:01;;;;;;;16.30;1.70;;;;;;;-142.75;100.00;76641.16;5080550;28;20020;-68
2023/01/13 07:00:27;;;;;;;19.77;2.20;;;;;;;-142.75;100.00;76643.13;5081657;28;20036;-63
2023/01/13 07:02:52;;;;;;;20.60;2.83;;;;;;;-142.75;100.00;76641.16;5082123;28;20687;-66
2023/01/13 07:05:19;;;;;;;13.68;1.83;;;;;;;-142.75;100.00;76649.03;5081239;28;20032;-66
2023/01/13 07:07:44;;;;;;;27.52;2.63;;;;;;;-142.75;100.00;76647.06;5082157;28;20031;-66
2023/01/13 07:10:12;;;;;;;18.75;3.20;;;;;;;-142.75;100.00;76649.03;5081447;28;20020;-66
2023/01/13 07:15:17;;;;;;;19.05;3.25;;;;;;;-142.75;100.00;76652.97;5081281;28;20396;-65
2023/01/13 07:15:24;;;;;;;26.98;2.63;;;;;;;-142.75;100.00;76652.97;5081089;28;20036;-66
2023/01/13 07:17:51;;;;;;;19.15;2.00;;;;;;;-142.75;100.00;76645.09;5080658;28;20050;-66
2023/01/13 07:20:16;;;;;;;23.67;2.75;;;;;;;-142.75;100.00;76654.94;5081179;28;20100;-67
2023/01/13 07:22:42;;;;;;;14.52;2.28;;;;;;;-142.75;100.00;76664.78;5081215;28;20024;-66
2023/01/13 07:25:08;;;;;;;17.73;2.53;;;;;;;-142.75;100.00;76662.81;5080740;28;20119;-66
2023/01/13 07:27:33;;;;;;;15.32;2.35;;;;;;;-142.75;100.00;76652.97;5080202;28;20052;-66
2023/01/13 07:29:59;;;;;;;18.98;1.73;;;;;;;-142.75;100.00;76651.00;5062683;28;20127;-66
2023/01/13 07:32:24;;;;;;;12.43;2.40;;;;;;;-142.75;100.00;76660.84;5080652;28;20024;-67
2023/01/13 07:34:49;;;;;;;20.15;2.78;;;;;;;-142.75;100.00;76656.91;5081328;28;20123;-67
2023/01/13 07:37:14;;;;;;;14.20;3.00;;;;;;;-142.75;100.00;76660.84;5079739;28;20069;-66
2023/01/13 07:39:40;;;;;;;15.40;2.13;;;;;;;-142.75;100.00;76652.97;5080843;28;20060;-66
2023/01/13 07:44:49;;;;;;;16.55;2.28;;;;;;;-142.75;100.00;76658.88;5081010;28;20111;-66
2023/01/13 07:47:14;;;;;;;14.80;2.40;;;;;;;-142.75;100.00;76664.78;5061682;28;20023;-66
2023/01/13 07:49:40;;;;;;;15.73;2.30;;;;;;;-142.75;100.00;76660.84;5080500;28;20374;-66
2023/01/13 07:52:05;;;;;;;8.43;2.00;;;;;;;-142.75;100.00;76664.78;5079935;28;20046;-67
2023/01/13 07:54:30;;;;;;;18.02;2.95;;;;;;;-142.75;100.00;76656.91;5062565;28;20053;-66
2023/01/13 07:56:56;;;;;;;18.63;2.25;;;;;;;-142.75;100.00;76664.78;5061127;28;20370;-63
2023/01/13 07:59:21;;;;;;;15.85;2.10;;;;;;;-142.75;100.00;76660.84;5080412;28;20020;-65
2023/01/13 08:01:47;;;;;;;16.25;2.53;;;;;;;-142.75;100.00;76662.81;5080503;28;20016;-67
2023/01/13 08:04:12;;;;;;;7.93;1.95;;;;;;;-142.75;100.00;76652.97;5080343;28;20024;-67
2023/01/13 08:06:40;;;;;;;17.83;2.13;;;;;;;-142.75;100.00;76668.72;5079231;28;20073;-64
2023/01/13 08:09:07;;;;;;;17.65;2.40;;;;;;;-142.75;100.00;76664.78;5080223;28;20027;-67
2023/01/13 08:11:32;;;;;;;19.00;3.08;;;;;;;-142.75;100.00;76668.72;5079987;28;20024;-67
2023/01/13 08:13:58;;;;;;;14.75;2.03;;;;;;;-142.75;100.00;76658.88;5079799;28;20043;-66
2023/01/13 08:16:23;;;;;;;11.55;2.28;;;;;;;-142.75;100.00;76662.81;5079791;28;20024;-64
2023/01/13 08:18:48;;;;;;;14.70;1.92;;;;;;;-142.75;100.00;76680.53;5079382;28;20103;-67
2023/01/13 08:21:14;;;;;;;15.60;1.80;;;;;;;-142.75;100.00;76676.59;5061963;28;20028;-66
2023/01/13 08:23:41;;;;;;;11.85;1.52;;;;;;;-142.75;100.00;76668.72;5080052;28;20980;-66
2023/01/13 08:26:13;;;;;;;15.90;2.22;;;;;;;-142.75;100.00;76664.78;5079524;28;20032;-66
2023/01/13 08:28:39;;;;;;;20.75;2.42;;;;;;;-142.75;100.00;76672.66;5079161;28;20104;-67
2023/01/13 08:31:07;;;;;;;12.75;2.25;;;;;;;-142.75;100.00;76668.72;5079698;28;20115;-67
2023/01/13 08:33:33;;;;;;;15.77;2.08;;;;;;;-142.75;100.00;76686.44;5061704;28;20030;-67
2023/01/13 08:36:06;;;;;;;20.48;2.90;;;;;;;-142.75;100.00;76682.50;5079717;28;20020;-65
2023/01/13 08:38:33;;;;;;;19.00;2.28;;;;;;;-142.75;100.00;76702.19;5078876;28;20031;-65
2023/01/13 08:40:59;;;;;;;20.02;2.20;;;;;;;-142.75;100.00;76708.09;5079684;28;20057;-66
2023/01/13 08:43:24;;;;;;;12.43;2.58;;;;;;;-142.75;100.00;76723.84;5061510;28;20044;-65
2023/01/13 08:45:58;;;;;;;13.32;1.85;;;;;;;-142.75;100.00;76710.06;5079836;28;20020;-67
2023/01/13 08:48:24;;;;;;;15.32;2.30;;;;;;;-142.75;100.00;76712.03;5078746;28;20055;-67
2023/01/13 08:50:49;;;;;;;8.40;1.40;;;;;;;-142.75;100.00;76737.63;5079516;28;20165;-66
2023/01/13 08:53:14;;;;;;;17.38;2.03;;;;;;;-142.75;100.00;76741.56;5079344;28;20601;-66
2023/01/13 08:55:40;;;;;;;11.98;1.98;;;;;;;-142.75;100.00;76743.53;5079205;28;20556;-66
2023/01/13 08:58:05;;;;;;;14.98;1.58;;;;;;;-142.75;100.00;76737.63;5078238;28;20127;-67
2023/01/13 09:00:30;;;;;;;17.88;2.75;;;;;;;-142.75;100.00;76743.53;5061303;28;20600;-67
2023/01/13 09:02:57;;;;;;;9.90;1.48;;;;;;;-142.75;100.00;76749.44;5079246;28;20020;-64
2023/01/13 09:05:23;;;;;;;11.30;1.93;;;;;;;-142.75;100.00;76741.56;5060831;28;20932;-67
2023/01/13 09:07:48;;;;;;;23.75;2.83;;;;;;;-142.75;100.00;76749.44;5060725;28;20118;-67
2023/01/13 09:10:13;;;;;;;15.93;2.70;;;;;;;-142.75;100.00;76775.03;5078906;28;20034;-66
2023/01/13 09:15:23;;;;;;;18.45;2.17;;;;;;;-142.75;100.00;76769.13;5079323;28;20043;-67
2023/01/13 09:17:48;;;;;;;15.07;2.80;;;;;;;-142.75;100.00;76751.41;5060713;28;20031;-67
2023/01/13 09:20:14;;;;;;;19.20;2.33;;;;;;;-142.75;100.00;76761.25;5078988;28;20039;-66
2023/01/13 09:22:40;;;;;;;17.13;2.90;;;;;;;-142.75;100.00;76769.13;5061184;28;20484;-67
2023/01/13 09:25:05;;;;;;;15.00;2.35;;;;;;;-142.75;100.00;76771.09;5060553;28;20636;-67
2023/01/13 09:27:31;;;;;;;11.85;2.25;;;;;;;-142.75;100.00;76763.22;5078318;28;20030;-66
2023/01/13 09:29:56;;;;;;;24.70;2.78;;;;;;;-142.75;100.00;76747.47;5078725;28;20710;-65
2023/01/13 09:32:21;;;;;;;13.98;3.03;;;;;;;-142.75;100.00;76747.47;5079204;28;20024;-65
2023/01/13 09:34:58;;;;;;;14.95;2.28;;;;;;;-142.75;100.00;76763.22;5078984;28;20020;-66
2023/01/13 09:37:25;;;;;;;19.48;2.72;;;;;;;-142.75;100.00;76751.41;5078163;28;20024;-67
2023/01/13 09:39:50;;;;;;;16.63;2.03;;;;;;;-142.75;100.00;76749.44;5079177;28;20022;-66
2023/01/13 09:45:43;;;;;;;18.83;2.40;;;;;;;-142.75;100.00;76759.28;5079393;28;20047;-66
2023/01/13 09:48:16;;;;;;;16.13;2.40;;;;;;;-142.75;100.00;76743.53;5059720;28;20051;-66
2023/01/13 09:50:44;;;;;;;16.73;2.00;;;;;;;-142.75;100.00;76755.34;5079195;28;20028;-65
2023/01/13 09:53:44;;;;;;;15.00;3.13;;;;;;;-142.75;100.00;76751.41;5060854;28;20515;-66
2023/01/13 09:56:10;;;;;;;15.82;2.53;;;;;;;-142.75;100.00;76763.22;5063635;28;20044;-66
2023/01/13 09:58:35;;;;;;;;;;;;;;;-142.75;100.00;76745.50;5060778;28;20079;-66
2023/01/13 10:01:26;;;;;;;10.73;1.67;;;;;;;-142.75;100.00;76761.25;5060566;28;20258;-63
2023/01/13 10:03:52;;;;;;;14.82;2.35;;;;;;;-142.75;100.00;76743.53;5079054;28;20047;-66
2023/01/13 10:06:34;;;;;;;18.60;2.90;;;;;;;-142.75;100.00;76751.41;5060477;28;20437;-67
2023/01/13 10:08:59;;;;;;;15.57;2.35;;;;;;;-142.75;100.00;76757.31;5078361;28;20077;-66
2023/01/13 10:14:33;;;;;;;12.07;2.58;;;;;;;-142.75;100.00;76751.41;5078618;28;20947;-67
2023/01/13 10:17:24;;;;;;;10.93;1.70;;;;;;;-142.75;100.00;76751.41;5080496;28;20706;-66
2023/01/13 10:20:11;;;;;;;26.50;2.55;;;;;;;-142.75;100.00;76763.22;5082679;28;20020;-67
2023/01/13 10:22:39;;;;;;;15.75;2.33;;;;;;;-142.75;100.00;76753.38;5082270;28;20835;-66
2023/01/13 10:25:39;;;;;;;19.60;3.25;;;;;;;-142.75;100.00;76751.41;5081907;28;20043;-67
2023/01/13 10:28:14;;;;;;;19.67;2.53;;;;;;;-142.75;100.00;76751.41;5081491;28;20121;-66
2023/01/13 10:30:42;;;;;;;22.52;2.70;;;;;;;-142.75;100.00;76763.22;5064088;28;20146;-66
2023/01/13 10:33:17;;;;;;;13.55;2.20;;;;;;;-142.75;100.00;76761.25;5082125;28;20070;-67
2023/01/13 10:35:50;;;;;;;11.98;1.63;;;;;;;-142.75;100.00;76743.53;5081589;28;20036;-66
2023/01/13 10:38:26;;;;;;;12.93;2.50;;;;;;;-142.75;100.00;76733.69;5080762;28;20020;-65
2023/01/13 10:41:04;;;;;;;13.52;1.88;;;;;;;-142.75;100.00;76729.75;5082440;28;20040;-65
2023/01/13 10:43:30;;;;;;;12.15;2.60;;;;;;;-142.75;100.00;76733.69;5081756;28;20035;-67
2023/01/13 10:46:05;;;;;;;10.93;1.92;;;;;;;-142.75;100.00;76747.47;5081897;28;20020;-64
2023/01/13 10:48:31;;;;;;;8.45;1.80;;;;;;;-142.75;100.00;76743.53;5080695;28;20046;-66
2023/01/13 10:50:56;;;;;;;11.77;1.98;;;;;;;-142.75;100.00;76755.34;5081559;28;20043;-64
2023/01/13 10:53:24;;;;;;;12.65;1.80;;;;;;;-142.75;100.00;76739.59;5081631;28;20430;-64
2023/01/13 10:56:01;;;;;;;17.88;3.20;;;;;;;-142.75;100.00;76755.34;5081861;28;20024;-66
2023/01/13 10:58:27;;;;;;;14.65;1.95;;;;;;;-142.75;100.00;76759.28;5062658;28;20201;-65
2023/01/13 11:01:03;;;;;;;;;;;;;;;-142.75;100.00;76747.47;5082554;28;20426;-64
2023/01/13 11:03:40;;;;;;;12.68;1.90;;;;;;;-142.75;100.00;76757.31;5081321;28;19912;-66
2023/01/13 11:06:06;;;;;;;10.75;1.42;;;;;;;-142.75;100.00;76763.22;5081254;28;20354;-67
2023/01/13 11:08:44;;;;;;;13.45;2.17;;;;;;;-142.75;100.00;76751.41;5080673;28;20034;-67
2023/01/13 11:11:41;;;;;;;21.75;2.45;;;;;;;-142.75;100.00;76763.22;5081311;28;20116;-66
2023/01/13 11:14:40;;;;;;;12.60;2.10;;;;;;;-142.75;100.00;76749.44;5063049;28;20023;-67
2023/01/13 11:17:20;;;;;;;9.52;1.95;;;;;;;-142.75;100.00;76749.44;5080352;28;20028;-67
2023/01/13 11:19:52;;;;;;;15.52;2.13;;;;;;;-142.75;100.00;76761.25;5063175;28;20093;-66
2023/01/13 11:22:24;;;;;;;14.10;1.85;;;;;;;-142.75;100.00;76767.16;5080911;28;20409;-67
2023/01/13 11:24:55;;;;;;;11.15;1.95;;;;;;;-142.75;100.00;76739.59;5081627;28;20032;-67
2023/01/13 11:27:35;;;;;;;14.13;1.85;;;;;;;-142.75;100.00;76749.44;5079081;28;20069;-64
2023/01/13 11:30:24;;;;;;;14.65;1.92;;;;;;;-142.75;100.00;76747.47;5080683;28;20126;-66
2023/01/13 11:33:25;;;;;;;12.13;2.00;;;;;;;-142.75;100.00;76763.22;5080742;28;20398;-66
2023/01/13 11:36:03;;;;;;;9.93;1.75;;;;;;;-142.75;100.00;76763.22;5063074;28;20028;-64
2023/01/13 11:38:46;;;;;;;9.70;1.58;;;;;;;-142.75;100.00;76757.31;5062327;28;20020;-67
2023/01/13 11:41:15;;;;;;;10.90;2.00;;;;;;;-142.75;100.00;76767.16;5062348;28;20031;-66
2023/01/13 11:43:59;;;;;;;15.57;2.00;;;;;;;-142.75;100.00;76765.19;5080646;28;20027;-66
2023/01/13 11:46:27;;;;;;;11.13;1.60;;;;;;;-142.75;100.00;76773.06;5080568;28;20102;-66
2023/01/13 11:48:55;;;;;;;6.45;1.58;;;;;;;-142.75;100.00;76765.19;5080446;28;20024;-67
2023/01/13 11:51:27;;;;;;;10.32;1.88;;;;;;;-142.75;100.00;76775.03;5062085;28;20024;-65
2023/01/13 11:53:56;;;;;;;14.27;2.05;;;;;;;-142.75;100.00;76800.63;5062343;28;20020;-66